Terminal Aerodrome Forecast
Issued by NWS

Home | Current Version | Previous Version | Text Only | Print | Product List | Glossary On
Versions: 1 2 3 4 5 6 7 8 9 10 11 12 13 14 15 16 17 18 19 20 21 22 23 24 25 26 27 28 29 30 31 32 33 34
579
FTUS43 KGLD 141720
TAFMCK
TAF
KMCK 141720Z 1418/1518 00000KT P6SM BKN150
     FM150700 VRB03KT P6SM VCSH OVC070
     FM151100 12004KT P6SM VCSH OVC060
     FM151500 16004KT P6SM -FZRA OVC030=

USA.gov is the U.S. government's official web portal to all federal, state and local government web resources and services.